createdAt,value
2024-04-06T00:01:21.491Z,26
2024-04-06T00:11:21.495Z,23
2024-04-06T00:16:21.482Z,24
2024-04-06T00:21:21.498Z,21
2024-04-06T00:26:21.500Z,25
2024-04-06T00:31:21.501Z,30
2024-04-06T00:36:21.503Z,25
2024-04-06T00:41:21.491Z,23
2024-04-06T00:46:21.509Z,45
2024-04-06T00:51:21.494Z,36
2024-04-06T00:56:21.510Z,29
2024-04-06T01:01:21.511Z,40
2024-04-06T01:06:21.513Z,39
2024-04-06T01:11:21.515Z,38
2024-04-06T01:16:21.502Z,42
2024-04-06T01:21:21.518Z,32
2024-04-06T01:26:21.505Z,34
2024-04-06T01:31:21.521Z,43
2024-04-06T01:36:21.523Z,28
2024-04-06T01:41:21.510Z,31
2024-04-06T01:46:21.526Z,34
2024-04-06T01:51:21.513Z,29
2024-04-06T01:56:21.529Z,31
2024-04-06T02:01:21.530Z,26
2024-04-06T02:06:21.532Z,20
2024-04-06T02:11:21.534Z,21
2024-04-06T02:16:21.521Z,22
2024-04-06T02:21:21.579Z,19
2024-04-06T02:26:21.524Z,25
2024-04-06T02:31:21.604Z,33
2024-04-06T02:36:21.541Z,27
2024-04-06T02:41:21.543Z,28
2024-04-06T02:46:21.545Z,30
2024-04-06T02:51:21.532Z,30
2024-04-06T02:56:21.547Z,27
2024-04-06T03:01:21.534Z,34
2024-04-06T03:06:21.550Z,23
2024-04-06T03:11:21.551Z,29
2024-04-06T03:16:21.539Z,20
2024-04-06T03:21:21.555Z,23
2024-04-06T03:26:21.542Z,21
2024-04-06T03:31:21.557Z,26
2024-04-06T03:36:21.559Z,35
2024-04-06T03:41:21.560Z,29
2024-04-06T03:46:21.562Z,37
2024-04-06T03:51:21.549Z,33
2024-04-06T03:56:21.565Z,33
2024-04-06T04:01:21.552Z,35
2024-04-06T04:06:21.568Z,46
2024-04-06T04:11:21.569Z,33
2024-04-06T04:16:21.619Z,45
2024-04-06T04:21:21.573Z,26
2024-04-06T04:26:21.559Z,31
2024-04-06T04:31:21.575Z,45
2024-04-06T04:36:21.562Z,42
2024-04-06T04:41:21.578Z,35
2024-04-06T04:46:21.579Z,44
2024-04-06T04:51:21.566Z,40
2024-04-06T04:56:21.583Z,36
2024-04-06T05:01:21.569Z,47
2024-04-06T05:06:21.585Z,50
2024-04-06T05:11:21.586Z,49
2024-04-06T05:16:21.588Z,56
2024-04-06T05:21:21.589Z,51
2024-04-06T05:26:21.576Z,39
2024-04-06T05:31:21.592Z,51
2024-04-06T05:36:21.579Z,38
2024-04-06T05:41:21.594Z,42
2024-04-06T05:46:21.596Z,44
2024-04-06T05:51:21.583Z,43
2024-04-06T05:56:21.599Z,52
2024-04-06T06:01:21.586Z,60
2024-04-06T06:06:21.601Z,45
2024-04-06T06:11:21.604Z,50
2024-04-06T06:16:21.604Z,60
2024-04-06T06:21:21.606Z,65
2024-04-06T06:26:21.593Z,40
2024-04-06T06:31:21.651Z,51
2024-04-06T06:36:21.596Z,52
2024-04-06T06:41:21.612Z,60
2024-04-06T06:46:21.613Z,82
2024-04-06T06:51:21.615Z,88
2024-04-06T06:56:21.617Z,84
2024-04-06T07:01:21.604Z,101
2024-04-06T07:06:21.620Z,98
2024-04-06T07:11:21.608Z,104
2024-04-06T07:16:21.623Z,103
2024-04-06T07:21:21.625Z,101
2024-04-06T07:26:21.613Z,120
2024-04-06T07:31:21.630Z,114
2024-04-06T07:36:21.617Z,140
2024-04-06T07:41:21.633Z,118
2024-04-06T07:46:21.635Z,128
2024-04-06T07:51:21.638Z,120
2024-04-06T07:56:21.640Z,139
2024-04-06T08:01:21.628Z,162
2024-04-06T08:06:21.688Z,157
2024-04-06T08:11:21.634Z,132
2024-04-06T08:16:21.651Z,146
2024-04-06T08:21:21.654Z,149
2024-04-06T08:26:21.643Z,140
2024-04-06T08:31:21.661Z,150
2024-04-06T08:36:21.663Z,162
2024-04-06T08:41:21.666Z,161
2024-04-06T08:46:21.655Z,181
2024-04-06T08:51:21.672Z,157
2024-04-06T08:56:21.675Z,149
2024-04-06T09:01:21.664Z,171
2024-04-06T09:06:21.681Z,170
2024-04-06T09:11:21.669Z,183
2024-04-06T09:16:21.687Z,165
2024-04-06T09:21:21.690Z,179
2024-04-06T09:26:21.692Z,185
2024-04-06T09:31:21.696Z,219
2024-04-06T09:36:21.684Z,179
2024-04-06T09:41:21.701Z,199
2024-04-06T09:46:21.690Z,175
2024-04-06T09:51:21.707Z,200
2024-04-06T09:56:21.710Z,183
2024-04-06T10:01:21.699Z,212
2024-04-06T10:06:21.716Z,209
2024-04-06T10:11:21.705Z,186
2024-04-06T10:16:21.722Z,182
2024-04-06T10:21:21.710Z,197
2024-04-06T10:31:21.731Z,195
2024-04-06T10:36:21.719Z,205
2024-04-06T10:41:21.802Z,151
2024-04-06T10:46:21.725Z,208
2024-04-06T10:51:21.742Z,194
2024-04-06T10:56:21.745Z,195
2024-04-06T11:01:21.748Z,193
2024-04-06T11:06:21.752Z,155
2024-04-06T11:11:21.740Z,149
2024-04-06T11:16:21.757Z,178
2024-04-06T11:21:21.746Z,129
2024-04-06T11:26:21.763Z,126
2024-04-06T11:31:21.766Z,147
2024-04-06T11:36:21.755Z,181
2024-04-06T11:41:21.773Z,154
2024-04-06T11:46:21.761Z,167
2024-04-06T11:51:21.778Z,149
2024-04-06T11:56:21.781Z,148
2024-04-06T12:01:21.784Z,165
2024-04-06T12:06:21.787Z,159
2024-04-06T12:11:21.775Z,164
2024-04-06T12:16:21.858Z,168
2024-04-06T12:21:21.781Z,141
2024-04-06T12:26:21.798Z,148
2024-04-06T12:31:21.801Z,158
2024-04-06T12:36:21.853Z,118
2024-04-06T12:41:21.807Z,158
2024-04-06T12:46:21.795Z,140
2024-04-06T12:51:21.813Z,163
2024-04-06T12:56:21.801Z,168
2024-04-06T13:01:21.819Z,143
2024-04-06T13:06:21.821Z,148
2024-04-06T13:11:21.810Z,139
2024-04-06T13:16:21.828Z,176
2024-04-06T13:21:21.816Z,164
2024-04-06T13:26:21.833Z,163
2024-04-06T13:31:21.836Z,204
2024-04-06T13:36:21.839Z,163
2024-04-06T13:41:21.843Z,144
2024-04-06T13:46:21.831Z,182
2024-04-06T13:51:21.848Z,142
2024-04-06T13:56:21.836Z,185
2024-04-06T14:01:21.854Z,173
2024-04-06T14:06:21.857Z,143
2024-04-06T14:11:21.884Z,151
2024-04-06T14:16:21.863Z,196
2024-04-06T14:21:21.851Z,190
2024-04-06T14:26:21.868Z,162
2024-04-06T14:31:21.872Z,194
2024-04-06T14:36:21.875Z,144
2024-04-06T14:41:21.902Z,124
2024-04-06T14:46:21.867Z,131
2024-04-06T14:51:21.884Z,112
2024-04-06T14:56:21.873Z,140
2024-04-06T15:01:21.890Z,153
2024-04-06T15:06:21.893Z,138
2024-04-06T15:11:21.896Z,121
2024-04-06T15:16:21.899Z,121
2024-04-06T15:21:21.887Z,124
2024-04-06T15:26:21.904Z,122
2024-04-06T15:31:21.893Z,134
2024-04-06T15:36:21.911Z,149
2024-04-06T15:41:21.913Z,150
2024-04-06T15:46:21.902Z,152
2024-04-06T15:51:21.919Z,159
2024-04-06T15:56:21.908Z,160
2024-04-06T16:01:21.925Z,172
2024-04-06T16:06:21.927Z,162
2024-04-06T16:11:21.931Z,166
2024-04-06T16:16:21.934Z,166
2024-04-06T16:21:21.922Z,158
2024-04-06T16:26:21.939Z,169
2024-04-06T16:31:21.928Z,186
2024-04-06T16:36:21.945Z,158
2024-04-06T16:41:21.948Z,140
2024-04-06T16:46:21.936Z,146
2024-04-06T16:51:21.954Z,151
2024-04-06T16:56:21.942Z,136
2024-04-06T17:01:21.959Z,163
2024-04-06T17:06:21.948Z,150
2024-04-06T17:11:21.964Z,147
2024-04-06T17:16:21.967Z,156
2024-04-06T17:21:21.955Z,149
2024-04-06T17:26:22.023Z,130
2024-04-06T17:31:21.961Z,163
2024-04-06T17:36:21.978Z,149
2024-04-06T17:41:21.980Z,136
2024-04-06T17:46:21.983Z,152
2024-04-06T17:51:21.986Z,195
2024-04-06T17:56:21.973Z,200
2024-04-06T18:01:21.990Z,243
2024-04-06T18:06:21.978Z,209
2024-04-06T18:11:21.995Z,157
2024-04-06T18:16:21.997Z,165
2024-04-06T18:21:21.985Z,145
2024-04-06T18:26:22.002Z,160
2024-04-06T18:31:21.990Z,175
2024-04-06T18:36:22.006Z,143
2024-04-06T18:41:22.008Z,124
2024-04-06T18:46:22.011Z,161
2024-04-06T18:51:22.014Z,154
2024-04-06T18:56:22.001Z,142
2024-04-06T19:01:22.060Z,167
2024-04-06T19:06:22.005Z,136
2024-04-06T19:11:22.022Z,144
2024-04-06T19:16:22.024Z,164
2024-04-06T19:21:22.026Z,140
2024-04-06T19:26:22.029Z,129
2024-04-06T19:31:22.016Z,139
2024-04-06T19:36:22.032Z,149
2024-04-06T19:41:22.020Z,107
2024-04-06T19:46:22.036Z,117
2024-04-06T19:51:22.038Z,120
2024-04-06T19:56:22.026Z,109
2024-04-06T20:01:22.043Z,112
2024-04-06T20:06:22.030Z,107
2024-04-06T20:11:22.046Z,92
2024-04-06T20:16:22.048Z,127
2024-04-06T20:21:22.050Z,91
2024-04-06T20:26:22.053Z,92
2024-04-06T20:31:22.040Z,79
2024-04-06T20:36:22.056Z,56
2024-04-06T20:41:22.044Z,53
2024-04-06T20:46:22.060Z,38
2024-04-06T20:51:22.062Z,54
2024-04-06T20:56:22.088Z,35
2024-04-06T21:01:22.066Z,44
2024-04-06T21:06:22.053Z,39
2024-04-06T21:11:22.069Z,55
2024-04-06T21:16:22.057Z,44
2024-04-06T21:21:22.073Z,45
2024-04-06T21:26:22.083Z,37
2024-04-06T21:31:22.062Z,46
2024-04-06T21:36:22.079Z,42
2024-04-06T21:41:22.066Z,37
2024-04-06T21:46:22.082Z,34
2024-04-06T21:51:22.083Z,31
2024-04-06T21:56:22.085Z,36
2024-04-06T22:01:22.087Z,50
2024-04-06T22:06:22.074Z,47
2024-04-06T22:11:22.090Z,42
2024-04-06T22:16:22.078Z,39
2024-04-06T22:21:22.093Z,41
2024-04-06T22:26:22.095Z,29
2024-04-06T22:31:22.083Z,24
2024-04-06T22:36:22.099Z,28
2024-04-06T22:41:22.086Z,25
2024-04-06T22:46:22.102Z,30
2024-04-06T22:51:22.104Z,29
2024-04-06T22:56:22.105Z,21
2024-04-06T23:01:22.108Z,17
2024-04-06T23:06:22.095Z,14
2024-04-06T23:11:22.152Z,22
2024-04-06T23:16:22.098Z,22
2024-04-06T23:21:22.114Z,30
2024-04-06T23:26:22.115Z,30
2024-04-06T23:31:22.141Z,28
2024-04-06T23:36:22.119Z,32
2024-04-06T23:41:22.106Z,19
2024-04-06T23:46:22.122Z,17
2024-04-06T23:51:22.128Z,21
2024-04-06T23:56:22.125Z,17
